Time;durP1;ratioP1;P1;durP2;ratioP2;P2;SDS_P1;SDS_P2;PMS_P1;PMS_P2;Temp;Humidity;BMP_temperature;BMP_pressure;BME280_temperature;BME280_humidity;BME280_pressure;Samples;Min_cycle;Max_cycle;Signal;HPM_P1;HPM_P2
2022/11/11 00:01:12;;;;;;;2.78;1.60;;;11.20;97.40;;;;;;5034043;28;20044;-68
2022/11/11 00:03:38;;;;;;;1.85;1.33;;;11.20;97.30;;;;;;5035668;28;20037;-67
2022/11/11 00:06:06;;;;;;;3.70;1.90;;;11.20;97.20;;;;;;5034924;28;20113;-68
2022/11/11 00:08:32;;;;;;;5.88;1.70;;;11.20;97.20;;;;;;5035665;28;20044;-68
2022/11/11 00:11:11;;;;;;;3.05;1.52;;;11.20;97.10;;;;;;5035525;28;20033;-68
2022/11/11 00:13:38;;;;;;;1.80;1.30;;;11.20;97.00;;;;;;5035546;28;20078;-68
2022/11/11 00:16:12;;;;;;;3.90;1.65;;;11.20;97.10;;;;;;5034966;28;20083;-68
2022/11/11 00:26:46;;;;;;;2.25;1.42;;;11.20;96.90;;;;;;5048035;28;20051;-68
2022/11/11 00:29:12;;;;;;;3.17;1.30;;;11.10;96.90;;;;;;5035292;28;20041;-68
2022/11/11 00:32:21;;;;;;;3.35;1.45;;;11.20;97.00;;;;;;5035219;28;20036;-68
2022/11/11 00:34:23;;;;;;;3.08;1.58;;;11.10;97.20;;;;;;5034956;28;20034;-68
2022/11/11 00:36:49;;;;;;;4.65;1.30;;;11.20;97.30;;;;;;5035020;28;20045;-68
2022/11/11 00:39:14;;;;;;;2.95;1.08;;;11.20;97.20;;;;;;5035014;28;20033;-68
2022/11/11 00:41:40;;;;;;;2.08;1.52;;;11.20;97.30;;;;;;5034997;28;20082;-68
2022/11/11 00:44:06;;;;;;;4.20;1.38;;;11.20;97.20;;;;;;5034935;28;20038;-68
2022/11/11 00:52:00;;;;;;;3.08;1.55;;;11.20;97.10;;;;;;5034836;28;20116;-68
2022/11/11 00:54:26;;;;;;;3.63;1.58;;;11.20;97.00;;;;;;5034451;28;20445;-68
2022/11/11 00:56:51;;;;;;;2.40;1.60;;;11.20;97.00;;;;;;5034636;28;20084;-68
2022/11/11 00:59:17;;;;;;;4.72;1.33;;;11.20;97.10;;;;;;5034384;28;20485;-68
2022/11/11 01:01:43;;;;;;;3.17;1.30;;;11.20;97.10;;;;;;5034633;28;20393;-67
2022/11/11 01:04:08;;;;;;;2.22;1.30;;;11.20;97.00;;;;;;5034578;28;20084;-68
2022/11/11 01:06:35;;;;;;;3.70;1.13;;;11.20;97.10;;;;;;5034509;28;20041;-68
2022/11/11 01:09:05;;;;;;;1.90;1.20;;;11.20;97.10;;;;;;5034344;28;20041;-68
2022/11/11 01:11:31;;;;;;;1.88;1.15;;;11.20;97.20;;;;;;5033785;28;20068;-68
2022/11/11 01:13:57;;;;;;;2.10;1.30;;;11.20;97.10;;;;;;5034359;28;20044;-69
2022/11/11 01:16:25;;;;;;;3.63;1.25;;;11.20;97.10;;;;;;5034162;28;20437;-68
2022/11/11 01:18:52;;;;;;;6.20;1.73;;;11.20;97.10;;;;;;5033858;28;20037;-69
2022/11/11 01:21:22;;;;;;;2.38;1.40;;;11.20;97.10;;;;;;5034072;28;20030;-68
2022/11/11 01:23:49;;;;;;;2.22;1.10;;;11.30;97.10;;;;;;5034255;28;20484;-67
2022/11/11 01:26:19;;;;;;;2.45;1.13;;;11.30;97.00;;;;;;5034040;28;20076;-68
2022/11/11 01:28:48;;;;;;;8.77;1.30;;;11.30;97.00;;;;;;5034235;28;20091;-68
2022/11/11 01:31:15;;;;;;;1.30;0.93;;;11.20;96.90;;;;;;5034177;28;20396;-68
2022/11/11 01:33:41;;;;;;;8.50;1.15;;;11.20;97.00;;;;;;5034386;28;20038;-68
2022/11/11 01:36:19;;;;;;;1.42;1.00;;;11.20;96.90;;;;;;5033687;28;20033;-68
2022/11/11 01:38:52;;;;;;;4.20;1.00;;;11.30;97.10;;;;;;5033822;28;20041;-68
2022/11/11 01:41:35;;;;;;;2.45;1.08;;;11.20;97.10;;;;;;5033673;28;20029;-68
2022/11/11 01:44:36;;;;;;;2.63;1.20;;;11.30;97.10;;;;;;5033969;28;20440;-68
2022/11/11 01:47:04;;;;;;;1.90;1.00;;;11.20;97.10;;;;;;5033730;28;20482;-68
2022/11/11 01:49:35;;;;;;;2.00;0.95;;;11.30;97.10;;;;;;5033650;28;20061;-68
2022/11/11 01:52:07;;;;;;;4.47;1.13;;;11.30;97.00;;;;;;5033637;28;20045;-68
2022/11/11 01:54:49;;;;;;;2.65;1.00;;;11.30;97.00;;;;;;5033306;28;20388;-68
2022/11/11 01:57:52;;;;;;;1.52;1.00;;;11.30;97.10;;;;;;5033571;28;20067;-68
2022/11/11 02:00:18;;;;;;;;;;;11.20;97.00;;;;;;5029025;28;20204;-69
2022/11/11 02:02:53;;;;;;;5.15;1.00;;;11.30;96.90;;;;;;5030534;28;20024;-68
2022/11/11 02:08:14;;;;;;;2.15;0.90;;;11.20;96.90;;;;;;5033657;28;20385;-68
2022/11/11 02:10:44;;;;;;;3.05;1.00;;;11.20;96.80;;;;;;5033099;28;20126;-68
2022/11/11 02:15:59;;;;;;;3.75;1.98;;;11.20;96.90;;;;;;5033236;28;20191;-68
2022/11/11 02:18:26;;;;;;;5.63;0.95;;;11.20;97.00;;;;;;5033341;28;20136;-68
2022/11/11 02:20:52;;;;;;;2.15;0.90;;;11.20;96.90;;;;;;5032941;28;20041;-68
2022/11/11 02:23:36;;;;;;;1.42;1.10;;;11.30;97.00;;;;;;5032266;28;20070;-67
2022/11/11 02:26:04;;;;;;;1.10;0.88;;;11.30;96.90;;;;;;5032987;28;20106;-68
2022/11/11 02:28:32;;;;;;;3.17;1.42;;;11.30;96.90;;;;;;5032540;28;20140;-68
2022/11/11 02:30:57;;;;;;;1.63;0.93;;;11.20;96.80;;;;;;5032964;28;20041;-68
2022/11/11 02:33:23;;;;;;;3.15;1.13;;;11.20;96.80;;;;;;5032807;28;20049;-69
2022/11/11 02:35:57;;;;;;;1.60;0.98;;;11.20;96.80;;;;;;5032673;28;20371;-68
2022/11/11 02:38:24;;;;;;;1.67;0.80;;;11.20;96.80;;;;;;5032801;28;20037;-68
2022/11/11 02:43:34;;;;;;;4.18;0.82;;;11.20;96.70;;;;;;5032992;28;20152;-68
2022/11/11 02:46:02;;;;;;;1.35;1.00;;;11.20;96.80;;;;;;5032753;28;20116;-68
2022/11/11 02:48:29;;;;;;;3.30;1.27;;;11.20;96.70;;;;;;5032872;28;20040;-67
2022/11/11 02:50:54;;;;;;;1.23;1.00;;;11.10;96.60;;;;;;5032428;28;20119;-68
2022/11/11 02:53:21;;;;;;;1.52;0.82;;;11.10;96.70;;;;;;5032585;28;20092;-68
2022/11/11 02:55:46;;;;;;;2.13;0.85;;;11.10;96.60;;;;;;5032621;28;20432;-68
2022/11/11 02:58:13;;;;;;;1.40;1.00;;;11.00;96.30;;;;;;5032380;28;20040;-68
2022/11/11 03:00:39;;;;;;;6.68;1.10;;;11.00;96.50;;;;;;5032691;28;20107;-68
2022/11/11 03:03:05;;;;;;;2.95;1.40;;;11.00;96.60;;;;;;5033133;28;20508;-67
2022/11/11 03:05:30;;;;;;;6.85;1.00;;;10.90;96.50;;;;;;5032824;28;20386;-68
2022/11/11 03:07:56;;;;;;;1.67;1.05;;;10.90;96.60;;;;;;5032658;28;20037;-67
2022/11/11 03:10:22;;;;;;;2.45;1.02;;;10.90;96.70;;;;;;5032769;28;20045;-68
2022/11/11 03:12:47;;;;;;;5.10;0.90;;;10.90;96.70;;;;;;5032591;28;20533;-67
2022/11/11 03:15:13;;;;;;;2.33;1.00;;;10.80;96.50;;;;;;5032440;28;20061;-68
2022/11/11 03:17:39;;;;;;;3.97;1.15;;;10.80;96.60;;;;;;5032379;28;20469;-68
2022/11/11 03:22:59;;;;;;;2.80;1.27;;;10.80;96.50;;;;;;5032528;28;20037;-68
2022/11/11 03:25:37;;;;;;;3.97;1.10;;;10.80;96.50;;;;;;5032430;28;20053;-68
2022/11/11 03:28:14;;;;;;;1.35;0.85;;;10.80;96.50;;;;;;5032313;28;20034;-68
2022/11/11 03:30:41;;;;;;;2.97;1.10;;;10.80;96.60;;;;;;5032407;28;20045;-68
2022/11/11 03:33:07;;;;;;;3.45;1.30;;;10.80;96.70;;;;;;5032338;28;20039;-67
2022/11/11 03:35:34;;;;;;;2.03;1.20;;;10.80;96.70;;;;;;5035380;28;20052;-68
2022/11/11 03:38:22;;;;;;;1.80;0.93;;;10.80;96.80;;;;;;5036309;28;20057;-68
2022/11/11 03:40:52;;;;;;;4.72;1.05;;;10.80;96.90;;;;;;5036160;28;20099;-69
2022/11/11 03:43:19;;;;;;;2.00;1.10;;;10.80;96.90;;;;;;5035786;28;20107;-68
2022/11/11 03:45:45;;;;;;;1.52;1.10;;;10.90;96.90;;;;;;5036202;28;20034;-67
2022/11/11 03:48:11;;;;;;;1.52;1.00;;;10.80;96.90;;;;;;5035829;28;20033;-68
2022/11/11 03:50:38;;;;;;;1.25;0.93;;;10.80;96.80;;;;;;5035751;28;20057;-67
2022/11/11 03:53:03;;;;;;;1.77;1.10;;;10.80;96.80;;;;;;5035817;28;20033;-68
2022/11/11 03:55:30;;;;;;;2.15;0.93;;;10.80;96.90;;;;;;5035824;28;20025;-67
2022/11/11 03:57:55;;;;;;;2.40;1.00;;;10.80;96.80;;;;;;5035698;28;20393;-67
2022/11/11 04:00:24;;;;;;;3.28;1.00;;;10.80;96.80;;;;;;5035850;28;20040;-67
2022/11/11 04:11:36;;;;;;;8.05;4.72;;;10.80;96.90;;;;;;5034670;28;20045;-68
2022/11/11 04:16:49;;;;;;;4.20;3.45;;;10.80;97.00;;;;;;5035608;28;20507;-69
2022/11/11 04:21:59;;;;;;;4.32;1.50;;;10.90;97.00;;;;;;5035484;28;20192;-67
2022/11/11 04:27:12;;;;;;;7.35;1.42;;;10.80;97.00;;;;;;5035353;28;20040;-68
2022/11/11 04:29:38;;;;;;;3.20;1.20;;;10.80;97.00;;;;;;5035274;28;20390;-68
2022/11/11 04:34:56;;;;;;;0.98;0.85;;;10.80;96.90;;;;;;5035196;28;20103;-68
2022/11/11 04:37:24;;;;;;;1.50;0.90;;;10.80;96.70;;;;;;5034958;28;20041;-68
2022/11/11 04:42:34;;;;;;;2.47;1.10;;;10.70;96.60;;;;;;5035167;28;20163;-68
2022/11/11 04:48:05;;;;;;;2.13;1.20;;;10.60;96.50;;;;;;5034697;28;20071;-67
2022/11/11 04:50:36;;;;;;;1.83;1.40;;;10.60;96.40;;;;;;5035044;28;20440;-68
2022/11/11 04:53:04;;;;;;;2.15;1.52;;;10.60;96.50;;;;;;5049983;28;20041;-68
2022/11/11 04:58:18;;;;;;;4.03;1.42;;;10.50;96.50;;;;;;5034888;28;20096;-69
2022/11/11 05:00:44;;;;;;;2.35;1.42;;;10.60;96.60;;;;;;5034748;28;20402;-69
2022/11/11 05:03:14;;;;;;;4.22;1.20;;;10.50;96.50;;;;;;5034311;28;20046;-70
2022/11/11 05:11:33;;;;;;;2.67;1.25;;;10.50;96.80;;;;;;5034530;28;20044;-68
2022/11/11 05:22:31;;;;;;;1.77;1.10;;;10.60;97.00;;;;;;5034214;28;20405;-69
2022/11/11 05:27:42;;;;;;;4.03;1.10;;;10.60;97.10;;;;;;5034189;28;20588;-69
2022/11/11 05:30:10;;;;;;;2.08;1.10;;;10.60;97.10;;;;;;5033697;28;20124;-69
2022/11/11 05:32:36;;;;;;;5.13;1.20;;;10.60;97.20;;;;;;5033725;28;20037;-69
2022/11/11 05:35:03;;;;;;;2.58;1.42;;;10.60;97.20;;;;;;5033832;28;20041;-69
2022/11/11 05:37:29;;;;;;;4.63;1.40;;;10.60;97.20;;;;;;5034161;28;20108;-69
2022/11/11 05:39:54;;;;;;;3.17;1.20;;;10.60;97.10;;;;;;5034154;28;20045;-69
2022/11/11 05:42:20;;;;;;;3.33;1.45;;;10.60;97.00;;;;;;5033891;28;20027;-69
2022/11/11 05:44:46;;;;;;;4.05;1.20;;;10.60;96.90;;;;;;5033882;28;20045;-69
2022/11/11 05:47:11;;;;;;;1.48;1.13;;;10.50;97.20;;;;;;5033604;28;20401;-69
2022/11/11 05:49:37;;;;;;;2.28;1.23;;;10.60;96.90;;;;;;5033711;28;20102;-69
2022/11/11 05:52:04;;;;;;;2.40;1.50;;;10.50;96.80;;;;;;5033156;28;20037;-69
2022/11/11 05:54:29;;;;;;;2.30;1.50;;;10.50;96.80;;;;;;5033229;28;20034;-69
2022/11/11 05:56:55;;;;;;;8.80;1.90;;;10.50;96.90;;;;;;5033458;28;20394;-69
2022/11/11 05:59:20;;;;;;;5.30;1.80;;;10.50;97.00;;;;;;5033586;28;20039;-69
2022/11/11 06:01:46;;;;;;;7.95;2.20;;;10.50;97.00;;;;;;5033277;28;20559;-69
2022/11/11 06:04:12;;;;;;;3.17;2.10;;;10.50;97.00;;;;;;5033094;28;20046;-69
2022/11/11 06:06:38;;;;;;;4.10;2.20;;;10.40;97.00;;;;;;5033204;28;20065;-69
2022/11/11 06:09:04;;;;;;;3.50;2.00;;;10.40;97.00;;;;;;5036691;28;20131;-68
2022/11/11 06:11:30;;;;;;;3.38;1.85;;;10.40;97.00;;;;;;5053164;28;20041;-69
2022/11/11 06:13:56;;;;;;;4.70;1.92;;;10.40;97.00;;;;;;5053282;28;20444;-69
2022/11/11 06:16:22;;;;;;;3.60;2.10;;;10.40;97.00;;;;;;5053064;28;20086;-69
2022/11/11 06:18:49;;;;;;;2.97;1.92;;;10.40;97.00;;;;;;5053180;28;20446;-69
2022/11/11 06:21:15;;;;;;;4.22;1.80;;;10.40;97.10;;;;;;5053094;28;20037;-69
2022/11/11 06:23:40;;;;;;;2.97;1.65;;;10.40;97.00;;;;;;5053071;28;20388;-69
2022/11/11 06:26:12;;;;;;;2.30;1.30;;;10.40;97.00;;;;;;5052841;28;20044;-68
2022/11/11 06:28:46;;;;;;;6.20;1.20;;;10.40;97.10;;;;;;5052949;28;20535;-69
2022/11/11 06:31:17;;;;;;;1.83;1.27;;;10.40;97.20;;;;;;5052839;28;20667;-69
2022/11/11 06:33:43;;;;;;;2.35;1.55;;;10.40;97.20;;;;;;5052862;28;20473;-69
2022/11/11 06:36:12;;;;;;;2.83;1.65;;;10.40;97.40;;;;;;5052611;28;20116;-69
2022/11/11 06:38:39;;;;;;;5.18;1.45;;;10.50;97.30;;;;;;5052731;28;20029;-69
2022/11/11 06:41:05;;;;;;;6.65;1.83;;;10.50;97.30;;;;;;5052908;28;20468;-69
2022/11/11 06:43:30;;;;;;;4.82;2.10;;;10.50;97.30;;;;;;5052390;28;20029;-69
2022/11/11 06:45:56;;;;;;;5.53;1.98;;;10.50;97.30;;;;;;5052932;28;20033;-69
2022/11/11 06:48:24;;;;;;;3.10;1.83;;;10.60;97.40;;;;;;5052769;28;20044;-67
2022/11/11 06:50:51;;;;;;;3.55;1.83;;;10.60;97.40;;;;;;5052657;28;20040;-69
2022/11/11 06:53:19;;;;;;;6.00;1.83;;;10.60;97.40;;;;;;5052609;28;20029;-69
2022/11/11 06:55:45;;;;;;;3.03;1.80;;;10.60;97.40;;;;;;5052788;28;20100;-69
2022/11/11 06:58:19;;;;;;;2.75;2.05;;;10.70;97.40;;;;;;5052636;28;20091;-69
2022/11/11 07:00:46;;;;;;;2.28;1.65;;;10.70;97.40;;;;;;5052501;28;20480;-70
2022/11/11 07:03:14;;;;;;;3.40;1.92;;;10.70;97.40;;;;;;5052731;28;20036;-69
2022/11/11 07:05:41;;;;;;;3.30;2.15;;;10.70;97.40;;;;;;5052661;28;20373;-69
2022/11/11 07:08:15;;;;;;;4.22;1.67;;;10.80;97.50;;;;;;5052496;28;20029;-69
2022/11/11 07:10:44;;;;;;;5.88;2.20;;;10.80;97.50;;;;;;5055814;28;20493;-69
2022/11/11 07:13:11;;;;;;;4.43;2.38;;;10.90;97.50;;;;;;5056609;28;20048;-69
2022/11/11 07:15:37;;;;;;;8.52;2.22;;;10.90;97.50;;;;;;5056481;28;20041;-69
2022/11/11 07:18:03;;;;;;;9.85;2.85;;;10.90;97.60;;;;;;5056445;28;20040;-69
2022/11/11 07:20:29;;;;;;;3.40;2.15;;;11.00;97.60;;;;;;5056472;28;20033;-69
2022/11/11 07:22:55;;;;;;;5.60;2.35;;;11.00;97.70;;;;;;5056222;28;20116;-69
2022/11/11 07:25:21;;;;;;;5.95;2.20;;;11.10;97.70;;;;;;5055916;28;20144;-69
2022/11/11 07:27:47;;;;;;;4.55;2.05;;;11.10;97.60;;;;;;5056232;28;20041;-69
2022/11/11 07:30:12;;;;;;;4.43;1.58;;;11.20;97.50;;;;;;5056251;28;20509;-69
2022/11/11 07:32:45;;;;;;;1.75;1.50;;;11.20;97.40;;;;;;5056499;28;20037;-68
2022/11/11 07:35:13;;;;;;;8.73;1.55;;;11.30;97.20;;;;;;5056071;28;20036;-69
2022/11/11 07:37:39;;;;;;;2.63;1.52;;;11.30;97.00;;;;;;5056010;28;20036;-69
2022/11/11 07:40:05;;;;;;;3.85;1.42;;;11.30;96.90;;;;;;5055883;28;20489;-69
2022/11/11 07:42:34;;;;;;;3.88;1.40;;;11.40;96.90;;;;;;5056167;28;20033;-70
2022/11/11 07:44:59;;;;;;;3.00;1.70;;;11.40;96.80;;;;;;5055927;28;20485;-69
2022/11/11 07:47:25;;;;;;;3.03;1.67;;;11.50;96.70;;;;;;5055683;28;20044;-69
2022/11/11 07:49:51;;;;;;;1.67;1.38;;;11.50;96.70;;;;;;5051788;28;20049;-68
2022/11/11 07:52:16;;;;;;;3.78;1.30;;;11.50;96.70;;;;;;5035848;28;20500;-70
2022/11/11 07:54:42;;;;;;;2.75;1.52;;;11.60;96.60;;;;;;5035966;28;20068;-70
2022/11/11 07:57:08;;;;;;;3.15;1.52;;;11.60;96.70;;;;;;5035497;28;20446;-68
2022/11/11 07:59:33;;;;;;;3.38;1.52;;;11.70;96.70;;;;;;5035392;28;20099;-69
2022/11/11 08:01:59;;;;;;;4.70;1.65;;;11.70;96.60;;;;;;5035419;28;20037;-70
2022/11/11 08:04:25;;;;;;;2.63;1.50;;;11.80;96.50;;;;;;5035653;28;20045;-69
2022/11/11 08:06:50;;;;;;;4.28;1.70;;;11.80;96.40;;;;;;5035581;28;20044;-69
2022/11/11 08:09:16;;;;;;;1.75;1.23;;;11.80;96.30;;;;;;5035433;28;20056;-69
2022/11/11 08:14:26;;;;;;;3.33;1.15;;;11.80;96.70;;;;;;5035403;28;20036;-71
2022/11/11 08:16:52;;;;;;;4.05;1.30;;;11.80;96.40;;;;;;5035270;28;20046;-71
2022/11/11 08:19:17;;;;;;;2.33;1.52;;;11.90;96.40;;;;;;5035277;28;20072;-69
2022/11/11 08:21:43;;;;;;;8.20;1.83;;;11.90;96.40;;;;;;5033895;28;20061;-70
2022/11/11 08:24:09;;;;;;;5.18;1.80;;;11.90;96.40;;;;;;5035147;28;20039;-69
2022/11/11 08:26:35;;;;;;;4.32;1.90;;;12.00;96.50;;;;;;5034696;28;20048;-69
2022/11/11 08:29:01;;;;;;;4.13;2.70;;;12.00;96.50;;;;;;5035275;28;20397;-69
2022/11/11 08:31:27;;;;;;;5.03;2.50;;;12.00;96.50;;;;;;5035368;28;20504;-68
2022/11/11 08:33:52;;;;;;;3.90;2.83;;;12.00;96.60;;;;;;5034824;28;20029;-70
2022/11/11 08:36:18;;;;;;;9.95;3.17;;;12.10;96.70;;;;;;5034527;28;20038;-69
2022/11/11 08:38:44;;;;;;;8.82;2.78;;;12.10;96.80;;;;;;5034590;28;20045;-69
2022/11/11 08:41:09;;;;;;;7.25;2.33;;;12.10;96.70;;;;;;5034031;28;20038;-69
2022/11/11 08:43:35;;;;;;;4.63;1.77;;;12.10;96.80;;;;;;5034201;28;20041;-70
2022/11/11 08:46:05;;;;;;;3.45;1.48;;;12.20;96.80;;;;;;5033555;28;20073;-70
2022/11/11 08:48:31;;;;;;;4.38;1.73;;;12.20;96.70;;;;;;5033870;28;20554;-69
2022/11/11 08:50:57;;;;;;;2.47;1.70;;;12.30;96.60;;;;;;5034959;28;20106;-69
2022/11/11 08:53:23;;;;;;;5.07;2.33;;;12.30;96.60;;;;;;5034415;28;20033;-70
2022/11/11 08:55:49;;;;;;;4.75;1.90;;;12.40;96.70;;;;;;5034582;28;20053;-68
2022/11/11 08:58:15;;;;;;;4.78;1.70;;;12.40;96.80;;;;;;5034566;28;20033;-69
2022/11/11 09:00:41;;;;;;;4.25;1.65;;;12.40;96.70;;;;;;5034524;28;20033;-68
2022/11/11 09:03:09;;;;;;;2.55;1.40;;;12.50;96.70;;;;;;5034316;28;20040;-69
2022/11/11 09:05:38;;;;;;;1.85;1.20;;;12.50;96.60;;;;;;5033886;28;20037;-69
2022/11/11 09:08:06;;;;;;;1.52;1.10;;;12.50;96.60;;;;;;5034162;28;20037;-69
2022/11/11 09:10:33;;;;;;;3.72;1.40;;;12.60;96.60;;;;;;5034090;28;20041;-69
2022/11/11 09:12:59;;;;;;;3.55;1.20;;;12.60;96.60;;;;;;5034410;28;20037;-69
2022/11/11 09:15:26;;;;;;;2.42;1.20;;;12.70;96.50;;;;;;5034165;28;20064;-68
2022/11/11 09:17:52;;;;;;;2.55;1.38;;;12.70;96.60;;;;;;5033850;28;20030;-69
2022/11/11 09:20:18;;;;;;;3.03;1.20;;;12.70;96.50;;;;;;5034101;28;20034;-69
2022/11/11 09:22:46;;;;;;;4.18;1.25;;;12.80;96.40;;;;;;5034368;28;20033;-69
2022/11/11 09:25:11;;;;;;;4.80;1.58;;;12.80;96.30;;;;;;5033789;28;20505;-69
2022/11/11 09:27:37;;;;;;;2.45;1.20;;;12.80;96.20;;;;;;5016163;28;20040;-68
2022/11/11 09:30:04;;;;;;;3.03;1.20;;;12.90;96.00;;;;;;5033189;28;20048;-70
2022/11/11 09:32:31;;;;;;;3.03;1.30;;;12.90;95.80;;;;;;5032367;28;20060;-68
2022/11/11 09:34:57;;;;;;;4.70;1.15;;;13.00;95.80;;;;;;5033070;28;20065;-69
2022/11/11 09:37:23;;;;;;;5.25;1.20;;;13.00;95.60;;;;;;5033530;28;20501;-69
2022/11/11 09:39:48;;;;;;;4.07;1.30;;;13.00;95.40;;;;;;5033073;28;20598;-69
2022/11/11 09:42:21;;;;;;;9.15;1.58;;;13.10;95.40;;;;;;5032303;28;20042;-68
2022/11/11 09:45:12;;;;;;;1.45;1.10;;;13.10;95.40;;;;;;5032605;28;20026;-69
2022/11/11 09:47:42;;;;;;;3.75;1.20;;;13.20;95.70;;;;;;5032766;28;20040;-69
2022/11/11 09:50:12;;;;;;;4.38;1.55;;;13.20;95.50;;;;;;5033053;28;20050;-69
2022/11/11 09:53:03;;;;;;;5.80;1.42;;;13.20;95.50;;;;;;5031549;28;20258;-69
2022/11/11 09:55:37;;;;;;;2.92;1.58;;;13.30;95.50;;;;;;5031049;28;20048;-69
2022/11/11 09:58:15;;;;;;;1.70;1.05;;;13.30;95.50;;;;;;5032219;28;20102;-70
2022/11/11 10:00:44;;;;;;;2.17;1.30;;;13.30;95.50;;;;;;5015294;28;20075;-69
2022/11/11 10:03:17;;;;;;;2.88;1.30;;;13.40;95.60;;;;;;5033244;28;20036;-69
2022/11/11 10:05:58;;;;;;;2.53;1.58;;;13.40;95.50;;;;;;5032182;28;20041;-70
2022/11/11 10:08:34;;;;;;;2.63;1.40;;;13.50;95.60;;;;;;5032615;28;20104;-68
2022/11/11 10:11:04;;;;;;;3.35;1.70;;;13.50;95.70;;;;;;5030969;28;20064;-69
2022/11/11 10:13:36;;;;;;;4.28;1.85;;;13.50;95.50;;;;;;5032653;28;20401;-69
2022/11/11 10:16:27;;;;;;;3.00;1.90;;;13.50;95.30;;;;;;5032984;28;20453;-69
2022/11/11 10:19:30;;;;;;;2.83;1.50;;;13.50;95.20;;;;;;5033376;28;20037;-69
2022/11/11 10:22:08;;;;;;;2.28;1.40;;;13.60;95.10;;;;;;5033296;28;20588;-68
2022/11/11 10:24:41;;;;;;;7.53;1.60;;;13.60;95.00;;;;;;5033370;28;20026;-69
2022/11/11 10:27:18;;;;;;;3.05;1.60;;;13.60;94.90;;;;;;5033428;28;20052;-70
2022/11/11 10:29:44;;;;;;;5.50;1.85;;;13.60;94.90;;;;;;5033357;28;20042;-71
2022/11/11 10:32:24;;;;;;;6.93;1.45;;;13.70;95.00;;;;;;5033191;28;20052;-71
2022/11/11 10:34:50;;;;;;;4.05;1.25;;;13.70;95.00;;;;;;5033290;28;20112;-72
2022/11/11 10:37:23;;;;;;;3.58;1.40;;;13.70;94.90;;;;;;5033332;28;20080;-71
2022/11/11 10:40:07;;;;;;;;;;;13.80;94.90;;;;;;5033494;28;20374;-71
2022/11/11 10:42:32;;;;;;;2.92;1.42;;;13.80;94.90;;;;;;5032973;28;19931;-71
2022/11/11 10:45:00;;;;;;;6.70;1.20;;;13.80;95.00;;;;;;5032245;28;20112;-70
2022/11/11 10:47:59;;;;;;;3.25;1.20;;;13.90;95.00;;;;;;5032489;28;20409;-72
2022/11/11 10:50:36;;;;;;;3.13;1.10;;;13.90;95.00;;;;;;5030639;28;20056;-71
2022/11/11 10:53:10;;;;;;;3.80;1.15;;;13.90;95.00;;;;;;5033181;28;20040;-72
2022/11/11 11:23:05;;;;;;;2.42;1.20;;;14.40;93.40;;;;;;6311093;22;1364813;-69
2022/11/11 11:25:32;;;;;;;3.53;1.20;;;14.50;93.20;;;;;;6347373;22;20038;-75
2022/11/11 11:28:10;;;;;;;5.00;1.40;;;14.50;93.10;;;;;;6347463;22;20424;-68
2022/11/11 11:30:36;;;;;;;2.75;1.10;;;14.60;93.10;;;;;;6347486;22;20047;-69
2022/11/11 11:33:04;;;;;;;4.60;1.27;;;14.60;92.90;;;;;;6347826;22;20003;-69
2022/11/11 11:35:37;;;;;;;2.15;1.45;;;14.60;92.80;;;;;;6347982;22;19994;-69
2022/11/11 11:38:05;;;;;;;4.60;1.25;;;14.60;92.80;;;;;;6347410;22;20038;-72
2022/11/11 11:40:51;;;;;;;3.05;1.38;;;14.60;92.80;;;;;;6347193;22;20070;-75
2022/11/11 11:43:37;;;;;;;1.63;0.95;;;14.60;92.90;;;;;;6346763;22;20274;-69
2022/11/11 11:46:31;;;;;;;2.00;1.02;;;14.70;92.90;;;;;;6345800;22;20015;-70
2022/11/11 11:49:29;;;;;;;1.85;0.90;;;14.70;93.00;;;;;;6345343;22;20002;-69
2022/11/11 11:52:32;;;;;;;1.63;1.15;;;14.70;92.90;;;;;;6336926;22;20069;-69
2022/11/11 11:55:09;;;;;;;2.50;1.13;;;14.70;92.90;;;;;;6346004;22;19999;-69
2022/11/11 11:58:12;;;;;;;1.95;1.17;;;14.70;93.10;;;;;;6347216;22;20065;-77
2022/11/11 12:00:53;;;;;;;2.22;1.38;;;14.70;93.10;;;;;;6313152;22;20009;-69
2022/11/11 12:03:47;;;;;;;2.22;1.10;;;14.80;93.00;;;;;;6347022;22;20002;-68
2022/11/11 12:06:25;;;;;;;1.80;1.23;;;14.80;92.80;;;;;;6347309;22;20010;-72
2022/11/11 12:09:18;;;;;;;2.42;1.25;;;14.90;92.70;;;;;;6347439;22;20001;-69
2022/11/11 12:11:59;;;;;;;4.85;1.42;;;14.90;92.70;;;;;;6347544;22;19998;-69
2022/11/11 12:14:48;;;;;;;2.75;1.30;;;15.00;92.80;;;;;;6343461;22;20439;-75
2022/11/11 12:17:53;;;;;;;2.47;1.17;;;15.00;92.70;;;;;;6341517;22;19995;-70
2022/11/11 12:20:40;;;;;;;2.92;1.30;;;15.10;92.70;;;;;;6339994;22;20003;-69
2022/11/11 12:23:20;;;;;;;2.15;1.35;;;15.10;92.50;;;;;;6339984;22;20034;-69
2022/11/11 12:25:52;;;;;;;2.60;1.20;;;15.20;92.30;;;;;;6339696;22;20149;-68
2022/11/11 12:28:38;;;;;;;2.13;1.10;;;15.20;92.40;;;;;;6339781;22;20009;-68
2022/11/11 12:31:24;;;;;;;3.15;0.88;;;15.30;92.10;;;;;;6340557;22;19998;-69
2022/11/11 12:34:17;;;;;;;4.22;1.20;;;15.30;92.00;;;;;;6340020;22;20069;-68
2022/11/11 12:37:04;;;;;;;1.88;1.08;;;15.20;91.80;;;;;;6340020;22;20010;-69
2022/11/11 12:39:57;;;;;;;1.83;1.00;;;15.30;91.60;;;;;;6336102;22;20367;-70
2022/11/11 12:42:32;;;;;;;2.95;0.95;;;15.30;91.60;;;;;;6336659;22;20003;-68
2022/11/11 12:45:34;;;;;;;3.70;1.10;;;15.30;91.60;;;;;;6338431;22;20425;-71
2022/11/11 12:48:12;;;;;;;2.22;0.90;;;15.40;91.80;;;;;;6303309;22;20034;-68
2022/11/11 12:51:03;;;;;;;1.60;1.00;;;15.30;92.00;;;;;;6339847;22;20429;-76
2022/11/11 12:53:49;;;;;;;3.45;1.52;;;15.30;92.10;;;;;;6339525;22;20354;-70
2022/11/11 12:56:21;;;;;;;1.90;1.30;;;15.40;92.00;;;;;;6339740;22;20010;-69
2022/11/11 12:59:28;;;;;;;2.03;0.80;;;15.30;91.90;;;;;;6339297;22;20417;-69
2022/11/11 13:02:13;;;;;;;26.10;2.47;;;15.30;91.80;;;;;;6306957;22;20038;-71
2022/11/11 13:04:50;;;;;;;87.63;4.63;;;15.30;91.70;;;;;;6339435;22;20006;-77
2022/11/11 13:07:41;;;;;;;11.23;1.45;;;15.30;91.80;;;;;;6339260;22;20488;-68
2022/11/11 13:10:31;;;;;;;3.92;1.17;;;15.40;91.40;;;;;;6339688;22;20387;-68
2022/11/11 13:13:02;;;;;;;3.15;0.88;;;15.30;91.40;;;;;;6339706;22;19999;-68
2022/11/11 13:15:28;;;;;;;2.35;1.10;;;15.30;91.60;;;;;;6339458;22;20538;-68
2022/11/11 13:17:57;;;;;;;1.30;0.88;;;15.40;91.60;;;;;;6339145;22;20002;-68
2022/11/11 13:20:34;;;;;;;2.35;1.20;;;15.40;91.60;;;;;;6338947;22;20003;-69
2022/11/11 13:23:00;;;;;;;1.50;1.20;;;15.40;91.60;;;;;;6338263;22;20324;-69
2022/11/11 13:25:31;;;;;;;6.07;1.30;;;15.40;91.50;;;;;;6338471;22;20078;-69
2022/11/11 13:28:06;;;;;;;1.65;1.20;;;15.40;91.60;;;;;;6339167;22;20082;-68
2022/11/11 13:31:23;;;;;;;2.30;1.60;;;15.40;91.60;;;;;;6338930;22;19999;-69
2022/11/11 13:33:56;;;;;;;3.03;1.42;;;15.40;91.80;;;;;;6244056;23;20008;-69
2022/11/11 13:36:26;;;;;;;2.63;1.38;;;15.40;91.80;;;;;;6243232;23;20004;-69
2022/11/11 13:38:55;;;;;;;2.28;1.30;;;15.30;91.80;;;;;;6304904;22;20447;-70
2022/11/11 13:41:37;;;;;;;2.28;1.55;;;15.30;91.80;;;;;;6339615;22;20021;-69
2022/11/11 13:44:07;;;;;;;2.85;0.98;;;15.30;91.80;;;;;;6339442;22;20002;-68
2022/11/11 13:46:35;;;;;;;2.38;1.25;;;15.30;91.80;;;;;;6339167;22;20018;-68
2022/11/11 13:49:03;;;;;;;2.17;1.20;;;15.30;91.80;;;;;;6339515;22;20030;-69
2022/11/11 13:51:37;;;;;;;5.22;1.13;;;15.30;91.70;;;;;;6339542;22;20014;-69
2022/11/11 13:54:26;;;;;;;8.43;4.97;;;15.30;91.80;;;;;;6339343;22;20049;-69
2022/11/11 13:56:59;;;;;;;8.68;3.80;;;15.30;91.90;;;;;;6338606;22;20086;-69
2022/11/11 13:59:30;;;;;;;5.80;3.50;;;15.30;92.10;;;;;;6339472;22;20316;-68
2022/11/11 14:02:12;;;;;;;6.65;4.07;;;15.20;92.10;;;;;;6338697;22;20420;-68
2022/11/11 14:05:00;;;;;;;5.30;3.17;;;15.20;92.30;;;;;;6339038;22;19995;-68
2022/11/11 14:07:46;;;;;;;5.88;1.98;;;15.20;92.40;;;;;;6339260;22;20010;-68
2022/11/11 14:10:17;;;;;;;4.90;1.80;;;15.20;92.40;;;;;;6339138;22;19999;-68
2022/11/11 14:12:46;;;;;;;4.30;1.88;;;15.20;92.40;;;;;;6310862;22;20002;-69
2022/11/11 14:15:32;;;;;;;7.35;1.90;;;15.10;92.40;;;;;;6311323;22;20078;-69
2022/11/11 14:17:59;;;;;;;3.40;2.00;;;15.10;92.50;;;;;;6339233;22;19999;-71
2022/11/11 14:20:36;;;;;;;2.88;1.70;;;15.10;92.50;;;;;;6339256;22;20048;-68
2022/11/11 14:23:17;;;;;;;4.40;1.67;;;15.10;92.50;;;;;;6338559;22;20011;-68
2022/11/11 14:25:48;;;;;;;14.13;2.40;;;15.10;92.50;;;;;;6338345;22;20022;-70
2022/11/11 14:28:27;;;;;;;25.08;3.10;;;15.10;92.50;;;;;;6339125;22;20029;-73
2022/11/11 14:30:55;;;;;;;22.30;2.38;;;15.00;92.60;;;;;;6339305;22;20451;-69
2022/11/11 14:33:29;;;;;;;28.02;2.83;;;15.10;92.60;;;;;;6338773;22;20085;-69
2022/11/11 14:36:11;;;;;;;21.15;3.17;;;15.00;92.60;;;;;;6338657;22;20021;-70
2022/11/11 14:38:52;;;;;;;16.27;3.03;;;15.00;92.60;;;;;;6338868;22;20009;-69
2022/11/11 14:41:39;;;;;;;11.38;2.13;;;15.00;92.60;;;;;;6339171;22;20368;-77
2022/11/11 14:44:26;;;;;;;8.35;1.92;;;14.90;92.60;;;;;;6338875;22;19999;-70
2022/11/11 14:47:07;;;;;;;7.50;2.00;;;14.90;92.60;;;;;;6338669;22;20010;-70
2022/11/11 14:49:52;;;;;;;16.23;2.40;;;14.90;92.70;;;;;;6338376;22;20051;-70
2022/11/11 14:52:22;;;;;;;13.10;2.53;;;14.90;92.80;;;;;;6338746;22;19999;-70